createdAt,value
2023-02-11T00:00:25.143Z,99995.34
2023-02-11T00:02:53.599Z,100002.78
2023-02-11T00:05:23.720Z,99992.03
2023-02-11T00:07:52.134Z,99995.53
2023-02-11T00:10:24.608Z,99990.31
2023-02-11T00:12:53.166Z,99988.91
2023-02-11T00:15:22.676Z,99986.13
2023-02-11T00:17:51.183Z,99981.09
2023-02-11T00:20:22.354Z,99981.28
2023-02-11T00:22:52.544Z,99975.22
2023-02-11T00:25:25.447Z,99961.16
2023-02-11T00:27:55.746Z,99966.44
2023-02-11T00:30:24.726Z,99972.50
2023-02-11T00:32:53.336Z,99968.44
2023-02-11T00:35:25.906Z,99959.22
2023-02-11T00:37:58.236Z,99946.56
2023-02-11T00:40:26.855Z,99951.94
2023-02-11T00:42:55.424Z,99953.50
2023-02-11T00:45:23.732Z,99959.06
2023-02-11T00:47:58.469Z,99955.59
2023-02-11T00:50:26.771Z,99959.66
2023-02-11T00:52:56.971Z,99957.75
2023-02-11T00:55:25.775Z,99955.94
2023-02-11T00:57:54.058Z,99940.56
2023-02-11T01:00:22.592Z,99954.44
2023-02-11T01:02:51.247Z,99949.34
2023-02-11T01:05:20.429Z,99959.22
2023-02-11T01:07:49.760Z,99936.75
2023-02-11T01:10:20.010Z,99945.97
2023-02-11T01:12:48.944Z,99952.47
2023-02-11T01:15:20.066Z,99947.69
2023-02-11T01:17:49.919Z,99934.91
2023-02-11T01:20:21.102Z,99932.41
2023-02-11T01:22:50.127Z,99927.19
2023-02-11T01:25:20.081Z,99929.38
2023-02-11T01:27:49.088Z,99926.50
2023-02-11T01:30:17.687Z,99922.16
2023-02-11T01:32:46.257Z,99923.97
2023-02-11T01:35:17.931Z,99914.34
2023-02-11T01:37:50.124Z,99915.31
2023-02-11T01:40:21.568Z,99918.00
2023-02-11T01:42:51.148Z,99905.03
2023-02-11T01:45:53.261Z,99918.41
2023-02-11T01:48:26.845Z,99920.13
2023-02-11T01:51:02.701Z,99928.31
2023-02-11T01:53:49.508Z,99910.69
2023-02-11T01:56:38.721Z,99903.72
2023-02-11T01:59:13.367Z,99898.84
2023-02-11T02:01:47.114Z,99902.31
2023-02-11T02:04:21.005Z,99902.09
2023-02-11T02:06:54.502Z,99894.44
2023-02-11T02:09:31.786Z,99894.25
2023-02-11T02:12:02.136Z,99888.53
2023-02-11T02:14:31.722Z,99885.38
2023-02-11T02:17:01.333Z,99882.09
2023-02-11T02:20:02.922Z,99876.34
2023-02-11T02:23:16.563Z,99881.47
2023-02-11T02:26:30.990Z,99873.53
2023-02-11T02:29:43.909Z,99880.34
2023-02-11T02:32:40.514Z,99872.03
2023-02-11T02:35:21.936Z,99865.91
2023-02-11T02:38:02.167Z,99861.38
2023-02-11T02:40:34.760Z,99858.28
2023-02-11T02:43:08.711Z,99850.34
2023-02-11T02:45:40.110Z,99850.06
2023-02-11T02:48:27.105Z,99844.63
2023-02-11T02:51:09.207Z,99844.63
2023-02-11T02:53:50.511Z,99832.91
2023-02-11T02:56:27.927Z,99861.22
2023-02-11T02:59:16.510Z,99857.81
2023-02-11T03:01:58.776Z,99860.06
2023-02-11T03:04:37.369Z,99854.22
2023-02-11T03:07:15.135Z,99857.09
2023-02-11T03:09:51.409Z,99853.03
2023-02-11T03:12:22.118Z,99846.66
2023-02-11T03:14:52.781Z,99852.28
2023-02-11T03:17:24.789Z,99854.16
2023-02-11T03:19:55.567Z,99841.75
2023-02-11T03:22:29.818Z,99857.41
2023-02-11T03:24:59.371Z,99849.50
2023-02-11T03:27:32.911Z,99856.91
2023-02-11T03:30:07.028Z,99856.34
2023-02-11T03:32:40.302Z,99853.13
2023-02-11T03:35:16.883Z,99853.22
2023-02-11T03:37:51.904Z,99860.22
2023-02-11T03:40:23.670Z,99858.00
2023-02-11T03:43:00.265Z,99852.09
2023-02-11T03:45:29.991Z,99842.03
2023-02-11T03:48:03.523Z,99842.50
2023-02-11T03:50:36.486Z,99836.28
2023-02-11T03:53:06.463Z,99837.13
2023-02-11T03:55:38.696Z,99833.22
2023-02-11T03:58:07.878Z,99822.16
2023-02-11T04:00:39.929Z,99829.09
2023-02-11T04:03:08.972Z,99820.50
2023-02-11T04:05:39.589Z,99840.81
2023-02-11T04:08:08.095Z,99828.28
2023-02-11T04:10:36.848Z,99824.25
2023-02-11T04:13:05.276Z,99808.56
2023-02-11T04:15:33.702Z,99818.41
2023-02-11T04:18:02.360Z,99820.28
2023-02-11T04:20:30.877Z,99822.56
2023-02-11T04:23:00.927Z,99829.91
2023-02-11T04:25:29.420Z,99819.19
2023-02-11T04:27:57.769Z,99818.19
2023-02-11T04:30:29.332Z,99803.31
2023-02-11T04:32:57.696Z,99803.88
2023-02-11T04:35:26.028Z,99797.81
2023-02-11T04:37:54.294Z,99778.31
2023-02-11T04:40:23.949Z,99767.53
2023-02-11T04:42:52.702Z,99768.81
2023-02-11T04:45:21.333Z,99785.66
2023-02-11T04:47:49.702Z,99794.25
2023-02-11T04:50:18.521Z,99774.47
2023-02-11T04:52:47.112Z,99778.72
2023-02-11T04:55:15.299Z,99765.59
2023-02-11T04:57:45.209Z,99772.66
2023-02-11T05:00:14.507Z,99773.38
2023-02-11T05:02:42.654Z,99765.47
2023-02-11T05:05:10.792Z,99761.56
2023-02-11T05:07:39.137Z,99753.13
2023-02-11T05:10:07.736Z,99781.91
2023-02-11T05:12:36.096Z,99792.25
2023-02-11T05:15:06.073Z,99773.91
2023-02-11T05:17:34.221Z,99781.63
2023-02-11T05:20:02.364Z,99786.69
2023-02-11T05:22:30.666Z,99795.34
2023-02-11T05:24:58.846Z,99792.03
2023-02-11T05:27:26.932Z,99789.41
2023-02-11T05:29:55.261Z,99769.81
2023-02-11T05:32:24.879Z,99769.56
2023-02-11T05:34:53.380Z,99759.56
2023-02-11T05:37:21.917Z,99754.28
2023-02-11T05:39:50.360Z,99775.09
2023-02-11T05:42:18.717Z,99770.81
2023-02-11T05:44:48.024Z,99765.03
2023-02-11T05:47:20.585Z,99759.06
2023-02-11T05:49:50.386Z,99751.63
2023-02-11T05:52:18.778Z,99741.38
2023-02-11T05:54:47.003Z,99748.16
2023-02-11T05:57:15.929Z,99741.00
2023-02-11T05:59:44.647Z,99758.81
2023-02-11T06:02:14.121Z,99771.66
2023-02-11T06:04:44.528Z,99771.66
2023-02-11T06:07:14.144Z,99765.25
2023-02-11T06:09:42.567Z,99764.13
2023-02-11T06:12:10.858Z,99769.03
2023-02-11T06:14:39.321Z,99764.84
2023-02-11T06:17:07.887Z,99745.34
2023-02-11T06:19:36.114Z,99740.03
2023-02-11T06:22:04.562Z,99744.34
2023-02-11T06:24:54.968Z,99731.31
2023-02-11T06:27:23.512Z,99741.94
2023-02-11T06:29:52.852Z,99735.94
2023-02-11T06:32:42.210Z,99746.78
2023-02-11T06:35:12.170Z,99737.91
2023-02-11T06:37:41.004Z,99744.03
2023-02-11T06:40:12.024Z,99747.22
2023-02-11T06:42:40.509Z,99746.28
2023-02-11T06:45:11.130Z,99738.28
2023-02-11T06:47:39.593Z,99735.59
2023-02-11T06:50:09.852Z,99745.75
2023-02-11T06:52:38.044Z,99740.03
2023-02-11T06:55:06.879Z,99747.09
2023-02-11T06:57:36.438Z,99751.16
2023-02-11T07:00:05.869Z,99744.19
2023-02-11T07:02:34.406Z,99761.72
2023-02-11T07:05:02.678Z,99779.59
2023-02-11T07:07:34.286Z,99770.66
2023-02-11T07:10:04.115Z,99767.47
2023-02-11T07:12:33.703Z,99772.59
2023-02-11T07:15:04.662Z,99776.94
2023-02-11T07:17:33.239Z,99769.06
2023-02-11T07:20:01.310Z,99772.59
2023-02-11T07:22:29.486Z,99785.56
2023-02-11T07:24:57.476Z,99772.22
2023-02-11T07:27:26.870Z,99774.38
2023-02-11T07:29:55.341Z,99767.78
2023-02-11T07:32:24.692Z,99763.59
2023-02-11T07:34:54.198Z,99764.47
2023-02-11T07:37:22.584Z,99758.50
2023-02-11T07:39:50.995Z,99765.34
2023-02-11T07:42:19.140Z,99770.22
2023-02-11T07:44:50.422Z,99767.03
2023-02-11T07:47:19.163Z,99766.16
2023-02-11T07:49:49.589Z,99773.69
2023-02-11T07:52:17.987Z,99776.09
2023-02-11T07:54:46.576Z,99783.28
2023-02-11T07:57:14.548Z,99786.19
2023-02-11T07:59:42.657Z,99792.44
2023-02-11T08:02:10.753Z,99776.78
2023-02-11T08:04:38.929Z,99777.53
2023-02-11T08:07:08.442Z,99782.50
2023-02-11T08:09:36.557Z,99780.06
2023-02-11T08:12:09.546Z,99796.69
2023-02-11T08:14:38.441Z,99796.50
2023-02-11T08:17:06.608Z,99801.78
2023-02-11T08:19:35.342Z,99800.19
2023-02-11T08:22:03.806Z,99797.03
2023-02-11T08:24:33.522Z,99792.31
2023-02-11T08:27:01.710Z,99780.03
2023-02-11T08:29:29.940Z,99783.53
2023-02-11T08:31:58.827Z,99771.06
2023-02-11T08:34:27.864Z,99770.75
2023-02-11T08:36:56.257Z,99768.00
2023-02-11T08:39:24.542Z,99775.97
2023-02-11T08:41:56.746Z,99768.06
2023-02-11T08:44:26.309Z,99759.72
2023-02-11T08:46:55.296Z,99763.09
2023-02-11T08:49:23.813Z,99755.63
2023-02-11T08:51:52.559Z,99761.41
2023-02-11T08:54:21.679Z,99765.09
2023-02-11T08:56:53.657Z,99762.09
2023-02-11T08:59:22.497Z,99769.06
2023-02-11T09:01:51.101Z,99780.38
2023-02-11T09:04:20.086Z,99776.34
2023-02-11T09:06:49.329Z,99772.22
2023-02-11T09:09:18.635Z,99767.94
2023-02-11T09:11:46.926Z,99772.13
2023-02-11T09:14:20.827Z,99773.72
2023-02-11T09:16:49.566Z,99759.19
2023-02-11T09:19:18.529Z,99760.31
2023-02-11T09:21:46.797Z,99753.03
2023-02-11T09:24:15.504Z,99744.09
2023-02-11T09:26:45.202Z,99740.13
2023-02-11T09:29:14.326Z,99750.25
2023-02-11T09:31:43.908Z,99759.19
2023-02-11T09:34:13.733Z,99754.09
2023-02-11T09:36:42.585Z,99760.59
2023-02-11T09:39:16.289Z,99766.41
2023-02-11T09:42:03.845Z,99763.97
2023-02-11T09:44:34.983Z,99773.88
2023-02-11T09:47:07.943Z,99757.75
2023-02-11T09:49:42.422Z,99774.13
2023-02-11T09:52:18.321Z,99767.75
2023-02-11T09:54:56.404Z,99768.03
2023-02-11T09:57:33.169Z,99770.75
2023-02-11T10:00:02.482Z,99755.56
2023-02-11T10:02:45.658Z,99763.34
2023-02-11T10:05:33.304Z,99764.56
2023-02-11T10:08:14.641Z,99755.06
2023-02-11T10:10:53.709Z,99770.69
2023-02-11T10:13:47.100Z,99776.34
2023-02-11T10:16:31.504Z,99779.41
2023-02-11T10:19:19.860Z,99781.50
2023-02-11T10:21:58.983Z,99775.00
2023-02-11T10:24:29.218Z,99782.09
2023-02-11T10:26:57.377Z,99786.56
2023-02-11T10:29:38.014Z,99782.13
2023-02-11T10:32:16.733Z,99770.34
2023-02-11T10:34:46.590Z,99777.41
2023-02-11T10:37:15.872Z,99776.13
2023-02-11T10:39:45.413Z,99777.88
2023-02-11T10:42:17.384Z,99775.38
2023-02-11T10:44:55.230Z,99767.53
2023-02-11T10:47:28.666Z,99764.19
2023-02-11T10:50:03.557Z,99762.84
2023-02-11T10:52:32.279Z,99765.59
2023-02-11T10:55:03.626Z,99758.84
2023-02-11T10:57:37.839Z,99762.13
2023-02-11T11:00:24.407Z,99752.47
2023-02-11T11:02:58.960Z,99762.44
2023-02-11T11:05:32.874Z,99758.22
2023-02-11T11:08:01.468Z,99761.91
2023-02-11T11:10:44.225Z,99755.09
2023-02-11T11:13:27.246Z,99755.94
2023-02-11T11:16:25.880Z,99768.50
2023-02-11T11:19:16.933Z,99766.63
2023-02-11T11:21:49.340Z,99760.53
2023-02-11T11:24:20.967Z,99749.66
2023-02-11T11:26:52.813Z,99761.84
2023-02-11T11:29:24.466Z,99752.75
2023-02-11T11:31:57.175Z,99760.34
2023-02-11T11:34:31.360Z,99761.34
2023-02-11T11:37:11.277Z,99750.25
2023-02-11T11:39:42.097Z,99755.94
2023-02-11T11:42:27.236Z,99750.75
2023-02-11T11:45:03.475Z,99752.47
2023-02-11T11:47:42.417Z,99757.56
2023-02-11T11:50:27.285Z,99754.47
2023-02-11T11:53:04.435Z,99745.81
2023-02-11T11:55:39.711Z,99751.63
2023-02-11T11:58:16.035Z,99745.78
2023-02-11T12:00:56.055Z,99741.41
2023-02-11T12:03:57.999Z,99744.34
2023-02-11T12:06:39.271Z,99747.03
2023-02-11T12:09:19.932Z,99743.44
2023-02-11T12:12:08.094Z,99743.03
2023-02-11T12:14:45.748Z,99726.06
2023-02-11T12:17:27.190Z,99731.19
2023-02-11T12:20:26.475Z,99737.41
2023-02-11T12:23:11.702Z,99740.66
2023-02-11T12:25:53.638Z,99745.84
2023-02-11T12:28:33.688Z,99747.22
2023-02-11T12:31:29.350Z,99736.34
2023-02-11T12:34:16.673Z,99734.63
2023-02-11T12:36:56.699Z,99738.09
2023-02-11T12:39:39.760Z,99743.94
2023-02-11T12:43:08.857Z,99738.78
2023-02-11T12:46:02.163Z,99731.97
2023-02-11T12:48:50.702Z,99731.78
2023-02-11T12:51:35.063Z,99723.03
2023-02-11T12:54:22.994Z,99731.56
2023-02-11T12:57:02.436Z,99716.19
2023-02-11T12:59:50.720Z,99737.63
2023-02-11T13:02:29.448Z,99723.03
2023-02-11T13:05:01.396Z,99719.75
2023-02-11T13:07:35.008Z,99716.44
2023-02-11T13:10:08.569Z,99712.97
2023-02-11T13:12:56.053Z,99711.41
2023-02-11T13:15:30.434Z,99696.88
2023-02-11T13:18:06.512Z,99699.47
2023-02-11T13:20:42.873Z,99685.13
2023-02-11T13:23:24.723Z,99693.69
2023-02-11T13:26:00.481Z,99696.13
2023-02-11T13:28:42.662Z,99701.28
2023-02-11T13:31:16.266Z,99699.41
2023-02-11T13:33:49.577Z,99702.53
2023-02-11T13:36:26.033Z,99703.31
2023-02-11T13:39:05.104Z,99697.34
2023-02-11T13:41:40.858Z,99711.03
2023-02-11T13:44:29.074Z,99706.91
2023-02-11T13:47:02.148Z,99707.16
2023-02-11T13:49:37.619Z,99708.78
2023-02-11T13:52:22.849Z,99718.25
2023-02-11T13:54:53.439Z,99723.31
2023-02-11T13:57:32.940Z,99718.09
2023-02-11T14:00:02.816Z,99706.03
2023-02-11T14:02:52.361Z,99724.13
2023-02-11T14:05:50.070Z,99719.63
2023-02-11T14:08:44.313Z,99720.59
2023-02-11T14:11:45.039Z,99718.88
2023-02-11T14:14:25.309Z,99716.06
2023-02-11T14:17:31.885Z,99709.19
2023-02-11T14:20:05.598Z,99714.00
2023-02-11T14:22:45.516Z,99706.13
2023-02-11T14:25:24.217Z,99713.31
2023-02-11T14:27:59.309Z,99715.94
2023-02-11T14:30:47.649Z,99711.69
2023-02-11T14:33:52.223Z,99706.31
2023-02-11T14:36:51.997Z,99718.59
2023-02-11T14:39:33.683Z,99716.28
2023-02-11T14:42:04.485Z,99707.00
2023-02-11T14:44:35.387Z,99702.44
2023-02-11T14:47:04.878Z,99702.47
2023-02-11T14:49:37.476Z,99707.38
2023-02-11T14:52:17.808Z,99709.00
2023-02-11T14:54:51.669Z,99718.50
2023-02-11T14:57:21.013Z,99713.34
2023-02-11T15:00:03.298Z,99711.50
2023-02-11T15:02:40.147Z,99702.72
2023-02-11T15:05:23.593Z,99709.72
2023-02-11T15:07:58.185Z,99711.34
2023-02-11T15:10:34.996Z,99705.25
2023-02-11T15:13:05.825Z,99713.72
2023-02-11T15:15:36.620Z,99724.69
2023-02-11T15:18:06.687Z,99723.78
2023-02-11T15:20:37.200Z,99725.41
2023-02-11T15:23:10.754Z,99729.63
2023-02-11T15:25:46.459Z,99724.56
2023-02-11T15:28:23.170Z,99721.94
2023-02-11T15:30:59.099Z,99727.00
2023-02-11T15:33:32.546Z,99713.31
2023-02-11T15:36:02.916Z,99737.19
2023-02-11T15:38:32.951Z,99740.59
2023-02-11T15:41:02.379Z,99732.09
2023-02-11T15:43:45.245Z,99731.09
2023-02-11T15:46:17.812Z,99734.66
2023-02-11T15:48:48.772Z,99734.63
2023-02-11T15:51:25.453Z,99736.25
2023-02-11T15:53:59.176Z,99738.03
2023-02-11T15:56:31.098Z,99737.84
2023-02-11T15:59:01.409Z,99743.97
2023-02-11T16:01:34.013Z,99738.69
2023-02-11T16:04:04.027Z,99743.72
2023-02-11T16:06:38.679Z,99744.56
2023-02-11T16:09:25.327Z,99737.66
2023-02-11T16:11:58.246Z,99743.63
2023-02-11T16:14:32.416Z,99752.19
2023-02-11T16:17:04.004Z,99749.53
2023-02-11T16:19:34.171Z,99752.06
2023-02-11T16:22:08.467Z,99752.06
2023-02-11T16:24:41.072Z,99753.78
2023-02-11T16:27:22.581Z,99759.78
2023-02-11T16:29:52.254Z,99768.28
2023-02-11T16:32:21.986Z,99769.88
2023-02-11T16:34:50.159Z,99770.00
2023-02-11T16:37:18.553Z,99769.84
2023-02-11T16:39:48.147Z,99768.84
2023-02-11T16:42:16.231Z,99769.00
2023-02-11T16:44:44.283Z,99771.38
2023-02-11T16:47:21.086Z,99778.94
2023-02-11T16:49:51.751Z,99777.41
2023-02-11T16:52:22.317Z,99770.38
2023-02-11T16:54:53.740Z,99774.53
2023-02-11T16:57:30.027Z,99779.63
2023-02-11T17:00:01.119Z,99784.72
2023-02-11T17:02:32.264Z,99771.81
2023-02-11T17:05:02.790Z,99782.19
2023-02-11T17:07:33.086Z,99773.53
2023-02-11T17:10:03.593Z,99788.06
2023-02-11T17:12:32.104Z,99782.09
2023-02-11T17:15:00.580Z,99782.09
2023-02-11T17:17:30.124Z,99793.22
2023-02-11T17:19:58.396Z,99793.25
2023-02-11T17:22:26.638Z,99796.66
2023-02-11T17:24:55.990Z,99793.03
2023-02-11T17:27:26.125Z,99798.25
2023-02-11T17:29:54.289Z,99810.16
2023-02-11T17:32:22.618Z,99798.34
2023-02-11T17:34:51.235Z,99785.34
2023-02-11T17:37:19.840Z,99797.09
2023-02-11T17:39:50.080Z,99785.09
2023-02-11T17:42:19.378Z,99796.19
2023-02-11T17:44:49.226Z,99802.94
2023-02-11T17:47:19.518Z,99802.09
2023-02-11T17:49:47.732Z,99808.94
2023-02-11T17:52:16.793Z,99802.00
2023-02-11T17:54:45.442Z,99809.72
2023-02-11T17:57:14.761Z,99798.69
2023-02-11T17:59:44.336Z,99800.41
2023-02-11T18:02:14.387Z,99808.72
2023-02-11T18:04:42.677Z,99807.75
2023-02-11T18:07:11.165Z,99799.66
2023-02-11T18:09:40.631Z,99806.50
2023-02-11T18:12:10.899Z,99812.38
2023-02-11T18:14:40.448Z,99808.16
2023-02-11T18:17:09.360Z,99805.56
2023-02-11T18:20:19.134Z,99806.53
2023-02-11T18:26:38.895Z,99820.31
2023-02-11T18:29:08.158Z,99819.44
2023-02-11T18:31:36.889Z,99817.91
2023-02-11T18:34:06.150Z,99815.38
2023-02-11T18:36:36.216Z,99817.06
2023-02-11T18:39:05.157Z,99823.00
2023-02-11T18:41:33.828Z,99827.28
2023-02-11T18:44:04.895Z,99824.66
2023-02-11T18:46:33.281Z,99825.47
2023-02-11T18:49:02.085Z,99816.13
2023-02-11T18:51:32.710Z,99819.34
2023-02-11T18:54:02.602Z,99833.22
2023-02-11T18:56:32.734Z,99829.69
2023-02-11T18:59:02.791Z,99833.03
2023-02-11T19:01:34.300Z,99820.22
2023-02-11T19:04:05.126Z,99822.84
2023-02-11T19:06:35.292Z,99822.78
2023-02-11T19:09:09.877Z,99822.78
2023-02-11T19:11:50.430Z,99832.19
2023-02-11T19:14:22.119Z,99821.81
2023-02-11T19:16:51.504Z,99832.94
2023-02-11T19:19:24.428Z,99844.06
2023-02-11T19:21:53.080Z,99847.53
2023-02-11T19:24:24.072Z,99840.69
2023-02-11T19:26:55.611Z,99840.78
2023-02-11T19:29:23.989Z,99844.22
2023-02-11T19:31:52.870Z,99847.75
2023-02-11T19:34:22.549Z,99853.75
2023-02-11T19:36:52.316Z,99849.59
2023-02-11T19:39:21.029Z,99857.25
2023-02-11T19:41:50.643Z,99862.25
2023-02-11T19:44:18.818Z,99854.72
2023-02-11T19:46:48.711Z,99857.28
2023-02-11T19:49:23.197Z,99856.38
2023-02-11T19:51:51.979Z,99856.47
2023-02-11T19:54:20.378Z,99862.28
2023-02-11T19:56:49.146Z,99868.31
2023-02-11T19:59:18.717Z,99858.84
2023-02-11T20:01:49.335Z,99876.69
2023-02-11T20:04:18.092Z,99873.22
2023-02-11T20:06:48.172Z,99871.53
2023-02-11T20:09:18.446Z,99874.81
2023-02-11T20:11:49.445Z,99860.31
2023-02-11T20:14:19.387Z,99871.69
2023-02-11T20:16:49.768Z,99875.78
2023-02-11T20:19:20.175Z,99879.19
2023-02-11T20:21:50.032Z,99892.78
2023-02-11T20:24:19.745Z,99891.06
2023-02-11T20:26:49.570Z,99883.34
2023-02-11T20:29:19.628Z,99875.69
2023-02-11T20:31:48.086Z,99866.16
2023-02-11T20:34:17.655Z,99871.44
2023-02-11T20:36:52.094Z,99876.38
2023-02-11T20:39:22.394Z,99873.03
2023-02-11T20:41:51.641Z,99876.44
2023-02-11T20:44:22.913Z,99874.69
2023-02-11T20:46:53.908Z,99883.22
2023-02-11T20:49:24.163Z,99883.22
2023-02-11T20:51:53.875Z,99889.84
2023-02-11T20:54:24.027Z,99882.97
2023-02-11T20:56:53.947Z,99889.78
2023-02-11T20:59:25.669Z,99889.94
2023-02-11T21:01:56.991Z,99892.59
2023-02-11T21:04:27.698Z,99892.66
2023-02-11T21:06:57.910Z,99890.19
2023-02-11T21:09:28.716Z,99885.13
2023-02-11T21:11:57.048Z,99902.94
2023-02-11T21:14:27.991Z,99903.88
2023-02-11T21:16:56.089Z,99907.97
2023-02-11T21:19:24.260Z,99916.66
2023-02-11T21:21:52.723Z,99917.47
2023-02-11T21:24:20.803Z,99910.59
2023-02-11T21:26:49.201Z,99915.63
2023-02-11T21:29:17.228Z,99902.03
2023-02-11T21:31:46.960Z,99914.78
2023-02-11T21:34:16.189Z,99918.94
2023-02-11T21:36:47.232Z,99911.28
2023-02-11T21:39:15.328Z,99914.56
2023-02-11T21:41:43.462Z,99918.09
2023-02-11T21:44:11.840Z,99911.34
2023-02-11T21:46:40.241Z,99919.75
2023-02-11T21:49:10.468Z,99918.06
2023-02-11T21:51:39.255Z,99919.66
2023-02-11T21:54:07.509Z,99908.44
2023-02-11T21:56:36.649Z,99916.34
2023-02-11T21:59:04.941Z,99914.66
2023-02-11T22:01:35.480Z,99920.34
2023-02-11T22:04:03.812Z,99930.72
2023-02-11T22:06:36.091Z,99923.94
2023-02-11T22:09:07.214Z,99933.34
2023-02-11T22:11:35.769Z,99927.41
2023-02-11T22:14:04.415Z,99917.19
2023-02-11T22:16:35.481Z,99918.00
2023-02-11T22:19:20.599Z,99922.22
2023-02-11T22:22:17.092Z,99900.72
2023-02-11T22:24:47.894Z,99934.94
2023-02-11T22:27:19.874Z,99920.50
2023-02-11T22:29:49.294Z,99917.13
2023-02-11T22:32:17.948Z,99918.81
2023-02-11T22:34:46.217Z,99926.38
2023-02-11T22:37:16.029Z,99928.91
2023-02-11T22:39:44.265Z,99935.53
2023-02-11T22:42:12.958Z,99939.97
2023-02-11T22:44:41.523Z,99939.91
2023-02-11T22:47:10.435Z,99937.25
2023-02-11T22:49:40.509Z,99944.09
2023-02-11T22:52:09.290Z,99940.63
2023-02-11T22:54:40.293Z,99945.91
2023-02-11T22:57:09.001Z,99944.97
2023-02-11T22:59:37.295Z,99949.13
2023-02-11T23:02:05.661Z,99941.50
2023-02-11T23:04:34.724Z,99950.00
2023-02-11T23:07:03.472Z,99954.25
2023-02-11T23:09:32.096Z,99949.13
2023-02-11T23:12:02.947Z,99955.94
2023-02-11T23:14:32.446Z,99952.53
2023-02-11T23:17:00.652Z,99942.34
2023-02-11T23:19:28.885Z,99948.28
2023-02-11T23:21:57.623Z,99933.56
2023-02-11T23:24:26.383Z,99954.94
2023-02-11T23:26:55.076Z,99955.66
2023-02-11T23:29:25.206Z,99941.00
2023-02-11T23:31:55.836Z,99942.78
2023-02-11T23:34:26.791Z,99949.50
2023-02-11T23:36:55.910Z,99936.63
2023-02-11T23:39:25.884Z,99946.75
2023-02-11T23:41:58.899Z,99954.41
2023-02-11T23:44:30.438Z,99948.44
2023-02-11T23:46:59.617Z,99937.22
2023-02-11T23:49:28.138Z,99952.63
2023-02-11T23:51:56.418Z,99945.84
2023-02-11T23:54:24.783Z,99950.13
2023-02-11T23:56:54.079Z,99969.69
2023-02-11T23:59:22.762Z,99963.81
